Pavlos Tachtsidis

Chefscout - PAOK
11 Mär 2027
Donnerstag
Verarbeitung

Persönlichkeit

Anpassungsfähigkeit (14) Ehrgeiz (3) Kontroverse (8) Loyalität (1) Druck (1) Professionalität (8) Fairness (11) Temperament (3)

Profil

Trainerstil Demokratisch
Lizenz Nationale A
Entschlossenheit 13
Menschenführung 9
Motivation 5
Disziplin 14
Arbeitszufriedenheit
50%
Ermüdung
0%
Rolle Chefscout
Gehalt 29.8K p/W
Vertrag 14.03.2030

Leistung

Verhalten Normal
Trainingseffektivität
24%
Spielerentwicklung
30%
Verletzungsprävention
45%
Taktische Umsetzung
25%

Letzte Ereignisse

Nahm an einer Scouting-Besprechung teil jetzt
Empfahl ein Transferziel jetzt
Empfahl ein Transferziel jetzt
Empfahl ein Transferziel jetzt
Empfahl ein Transferziel jetzt
Empfahl ein Transferziel jetzt
Empfahl ein Transferziel jetzt
Spieler begutachtet jetzt

Aktuell beobachtet

183
Spieler Verein Status Fähigkeit Vertrauen Beobachtet Zuletzt beobachtet Letzte Stimme
Jacques Ekomié Wrexham Aktiv 125 / 130 40% 2 10.03.2027 -
Adam Randell Bristol City Aktiv 126 / 129 40% 1 10.03.2027 -
Teden Mengi Luton Town Aktiv 121 / 126 40% 2 09.03.2027 -
Kristoffer Lund Birmingham Aktiv 133 / 132 40% 3 09.03.2027 -
Imrân Louza Watford Aktiv 136 / 133 40% 1 09.03.2027 -
Emanuel Aiwu Apollon Aktiv 133 / 117 40% 1 09.03.2027 -
Callum Doyle Wrexham Aktiv 134 / 131 40% 2 07.03.2027 -
Mandla Erasmus SuperSport United Aktiv 110 / 124 40% 7 06.03.2027 -
Nicolás Fernández Mercau Shakhtar Aktiv 145 / 135 40% 4 06.03.2027 -
Oliver Skipp Leicester City Aktiv 128 / 135 40% 1 06.03.2027 -
Kings Kangwa Panathinaikos Aktiv 147 / 139 40% 5 05.03.2027 -
Brodie Spencer Oxford United Aktiv 117 / 124 40% 1 05.03.2027 -
Japhet Tanganga Sheffield United Aktiv 125 / 131 40% 3 03.03.2027 -
Lewis Gibson Preston Aktiv 131 / 125 40% 2 03.03.2027 -
Edoardo Bove Watford Aktiv 132 / 131 40% 1 03.03.2027 -
Juan Mosquera Sheffield Wednesday Aktiv 123 / 123 40% 1 03.03.2027 -
Anel Ahmedhodžić Burnley Aktiv 133 / 135 40% 2 02.03.2027 -
Filipe Relvas AEK Aktiv 122 / 133 40% 1 02.03.2027 Mehr Infos nötig
Harry Clarke Preston Aktiv 128 / 128 40% 1 01.03.2027 -
Max Bird Birmingham Aktiv 129 / 135 40% 3 27.02.2027 -
Nadir Zortea Bologna Aktiv 130 / 132 40% 2 27.02.2027 -
Silvio Gentile Zob Ahan Aktiv 120 / 126 40% 1 25.02.2027 -
Max Johnston Derby County Aktiv 119 / 127 40% 1 25.02.2027 -
Vinicius Tobias Shakhtar Aktiv 135 / 134 40% 3 24.02.2027 -
Filippo Ranocchia Palermo Aktiv 126 / 131 40% 1 24.02.2027 -
Ben Nelson Leicester City Aktiv 123 / 130 40% 2 23.02.2027 -
Ângelo Al-Nassr Aktiv 118 / 144 40% 1 23.02.2027 -
Álvaro Carrillo APOEL Aktiv 131 / 127 40% 1 21.02.2027 -
Strahinja Manojlović Radnicki Nis Aktiv 116 / 107 40% 1 21.02.2027 -
Michael Cooper Sheffield United Aktiv 132 / 125 40% 1 21.02.2027 -
James Garner Everton Aktiv 155 / 147 40% 1 19.02.2027 -
Nicolas Madsen Queens Park Rangers Aktiv 127 / 124 40% 2 18.02.2027 -
Jan Bačkovský Dukla Prague Aktiv 111 / 114 40% 2 18.02.2027 -
Kostantis Tzolakis Hull City Aktiv 145 / 141 40% 1 18.02.2027 -
Milan van Ewijk Mansfield Town Aktiv 132 / 130 40% 3 16.02.2027 -
Diego Costa Krasnodar Aktiv 135 / 138 40% 2 16.02.2027 -
Welington Southampton Aktiv 129 / 130 40% 2 15.02.2027 -
Rubens Dinamo Moscow Aktiv 135 / 124 40% 1 15.02.2027 -
Kellen Fisher Norwich City Aktiv 117 / 128 40% 2 13.02.2027 -
Sławomir Abramowicz Jagiellonia Aktiv 121 / 129 40% 1 12.02.2027 -
Merchas Doski Viktoria Plzen Aktiv 131 / 121 40% 1 08.02.2027 -
Derry Murkin Derby County Aktiv 127 / 123 40% 1 07.02.2027 -
Azzedine Ounahi Panathinaikos Aktiv 144 / 142 40% 1 07.02.2027 -
Marlon Gomes Shakhtar Aktiv 136 / 139 40% 3 05.02.2027 -
Aidan Morris Middlesbrough Aktiv 123 / 130 40% 1 04.02.2027 -
Leif Davis Ipswich Town Aktiv 139 / 133 40% 1 04.02.2027 -
Di'Shon Bernard Sheffield Wednesday Aktiv 123 / 120 40% 1 03.02.2027 -
Alexandr Koryakin Krasnodar Aktiv 117 / 117 40% 2 02.02.2027 -
Shea Charles Southampton Aktiv 139 / 130 40% 1 02.02.2027 -
Jamie Cumming Oxford United Aktiv 119 / 122 40% 1 02.02.2027 -
Oumar Solet Udinese Aktiv 142 / 141 40% 1 31.01.2027 -
Jack Currie Oxford United Aktiv 120 / 120 40% 2 28.01.2027 -
Christian Krasnodar Aktiv 130 / 138 40% 1 28.01.2027 -
Giannis Theodosoulakis OFI Aktiv 101 / 112 62% 1 25.01.2027 Befürworten
Dennis Cirkin Queens Park Rangers Aktiv 119 / 130 40% 1 23.01.2027 -
Brian De Keersmaecker Oxford United Aktiv 126 / 118 40% 1 21.01.2027 -
Iqraam Rayners Colchester United Aktiv 137 / 133 40% 1 18.01.2027 -
Hany Mukhtar Spezia Aktiv 135 / 136 40% 1 18.01.2027 -
Jordan Beyer Burnley Aktiv 129 / 135 40% 1 12.01.2027 -
Tariq Lamptey Queens Park Rangers Aktiv 129 / 129 40% 1 12.01.2027 -
Taiwo Awoniyi Coventry City Aktiv 145 / 131 40% 2 11.01.2027 -
Florentino Luís Ipswich Town Aktiv 147 / 141 40% 1 11.01.2027 -
Andrea Carboni Monza Aktiv 125 / 124 40% 1 11.01.2027 -
Manfred Ugalde Spartak Moscow Aktiv 140 / 135 40% 2 07.01.2027 -
Mees Rijks Bristol Rovers Aktiv 113 / 116 40% 1 07.01.2027 -
Franco Romero Toluca Aktiv 114 / 127 40% 1 06.01.2027 -
Stanislav Agkatsev Sunderland Aktiv 132 / 133 66% 1 01.01.2027 Befürworten
Luiz Henrique West Ham United Aktiv 142 / 143 68% 1 01.01.2027 Befürworten
Israel Reyes CSKA Moscow Aktiv 137 / 137 68% 1 01.01.2027 Befürworten
Luka Jović AEK Aktiv 141 / 141 62% 1 01.01.2027 Befürworten
Marezi Portsmouth Aktiv 116 / 129 40% 1 01.01.2027 -
George Hirst Stoke City Aktiv 129 / 131 40% 1 31.12.2026 -
George Earthy Reading Aktiv 112 / 120 40% 4 30.12.2026 -
Ilyas Ansah Hull City Aktiv 131 / 136 40% 1 30.12.2026 -
Ebrima Singhateh Jablonec Aktiv 112 / 112 40% 1 30.12.2026 -
Armando Broja Burnley Aktiv 130 / 138 40% 1 30.12.2026 -
Aune Heggebø West Bromwich Albion Aktiv 127 / 122 40% 2 29.12.2026 -
Robert Mizo Ashanti Gold Aktiv 120 / 105 40% 1 29.12.2026 -
Ali Youssef Apollon Aktiv 133 / 128 40% 3 27.12.2026 -
Ollie Tanner Cardiff City Aktiv 117 / 120 40% 1 27.12.2026 -
Ethan Williams Peterborough United Aktiv 115 / 122 40% 1 27.12.2026 -
Ethan Galbraith Swansea City Aktiv 129 / 135 40% 1 27.12.2026 -
Dara O'Shea Ipswich Town Aktiv 141 / 136 40% 1 25.12.2026 -
Toby Collyer West Bromwich Albion Aktiv 125 / 135 40% 1 25.12.2026 -
Evidence Makgopa Orlando Pirates Aktiv 127 / 115 40% 1 25.12.2026 -
Jhon Jhon Zenit Aktiv 130 / 127 40% 5 22.12.2026 -
Hélio Varela Maccabi Tel Aviv Aktiv 137 / 120 40% 1 22.12.2026 -
Wandile Duba Maritzburg United Verhandlung 101 / 98 40% 1 22.12.2026 -
Felipe Augusto Zenit Aktiv 130 / 136 40% 1 22.12.2026 -
Aaron Connolly Leyton Orient Aktiv 118 / 125 40% 1 21.12.2026 -
Williams Manyama SuperSport United Aktiv 127 / 126 40% 5 19.12.2026 -
Tomás González Piast Aktiv 111 / 121 40% 3 18.12.2026 -
Othmane Maamma Watford Aktiv 130 / 124 40% 2 18.12.2026 -
Dávid Strelec Middlesbrough Aktiv 132 / 142 40% 1 18.12.2026 -
Yerson Chacón AE Kition Verloren 110 / 117 40% 3 15.12.2026 -
Joe Gelhardt Hull City Aktiv 133 / 136 40% 2 15.12.2026 -
Enzo Cabrera AE Kition Aktiv 104 / 112 40% 1 14.12.2026 -
Niall Ennis Blackpool Aktiv 112 / 114 40% 1 14.12.2026 -
Yaroslav Gladyshev Dinamo Moscow Aktiv 130 / 119 40% 1 13.12.2026 -
Brayan Gil Baltika Aktiv 121 / 115 40% 2 09.12.2026 -
Bongani Mothiba SuperSport United Aktiv 78 / 80 40% 1 09.12.2026 -
Tornike Morchiladze HNK Rijeka Verloren 125 / 109 40% 1 09.12.2026 -
Cédric Don Maccabi Haifa Verloren 117 / 121 40% 2 08.12.2026 -
Angelo Gattermayer Wolfsberger AC Aktiv 118 / 125 40% 3 05.12.2026 -
Aidomo Emakhu Oxford United Aktiv 119 / 124 40% 1 05.12.2026 -
Jacques Siwe Rubin Aktiv 114 / 119 40% 1 05.12.2026 -
Facundo Pellistri Panathinaikos Aktiv 140 / 133 40% 3 02.12.2026 -
Ştefan Baiaram Universitatea Craiova Aktiv 119 / 121 40% 1 01.12.2026 -
Florin Maxim Astra Aktiv 125 / 116 40% 3 30.11.2026 -
Christos Mouzakitis Hull City Aktiv 136 / 138 40% 2 30.11.2026 -
Siyanda Ndlovu Bloemfontein Celtic Aktiv 110 / 116 40% 2 28.11.2026 -
Berna CSKA 1948 Aktiv 118 / 121 40% 1 27.11.2026 -
Ihor Krasnopir Polissia Aktiv 119 / 111 40% 2 26.11.2026 -
Yuber Quiñónes Deportivo Pereira Aktiv 126 / 122 40% 4 25.11.2026 -
Keagan Mothiba SuperSport United Aktiv 105 / 117 40% 2 23.11.2026 -
Ahmad Yazdani Padideh Aktiv 119 / 135 40% 2 22.11.2026 -
Joaquín Gho Argentinos Juniors Aktiv 117 / 118 40% 1 21.11.2026 -
Razvan Balasa Crvena Zvezda Aktiv 140 / 140 40% 1 21.11.2026 -
Mduduzi Shabalala Kaizer Chiefs Aktiv 100 / 112 40% 1 18.11.2026 -
Suleiman Camara Slovan Bratislava Aktiv 125 / 127 40% 3 17.11.2026 -
Conrad Wallem Austria Wien Aktiv 128 / 125 40% 2 16.11.2026 -
Mayckel Lahdo Malmo FF Aktiv 123 / 133 40% 1 16.11.2026 -
Augusto Schott Talleres Aktiv 117 / 125 40% 1 16.11.2026 -
Bénie Traoré New York City Aktiv 118 / 121 40% 1 14.11.2026 -
Marek Sestak FK Senica Aktiv 107 / 117 40% 1 13.11.2026 -
Alex Opoku Sarfo Aris Aktiv 100 / 126 40% 4 10.11.2026 -
Ramiro Hernandes Belgrano Aktiv 113 / 128 40% 1 09.11.2026 -
Ethan Mbappé LOSC Lille Aktiv 137 / 135 40% 1 07.11.2026 -
Ola Brynhildsen Bodo/Glimt Aktiv 125 / 129 40% 1 07.11.2026 -
Lassina Traoré Shakhtar Aktiv 122 / 117 40% 1 05.11.2026 -
Tio Cipot NK Maribor Aktiv 119 / 123 40% 2 03.11.2026 -
Patrick Yazbek Nashville SC Aktiv 127 / 117 40% 1 03.11.2026 -
Shahriar Dejagah Tractor Aktiv 124 / 130 40% 2 02.11.2026 -
Matheus Gonçalves Al-Ahli Aktiv 115 / 122 40% 1 02.11.2026 -
Alexandru Musi Voluntari Aktiv 127 / 115 40% 1 02.11.2026 -
Germán Berterame Inter Miami CF Aktiv 131 / 139 40% 1 02.11.2026 -
Paxten Aaronson Colorado Rapids Aktiv 125 / 143 40% 2 31.10.2026 -
Liel Abada Charlotte Football Club Aktiv 122 / 130 40% 2 31.10.2026 -
Bamba Dieng Crvena Zvezda Aktiv 121 / 132 40% 1 31.10.2026 -
Facundo Mura Inter Miami CF Aktiv 134 / 125 40% 1 29.10.2026 -
Kein Sato FC Tokyo Aktiv 134 / 131 40% 1 26.10.2026 -
Ruben van Bommel Ferencvaros Aktiv 124 / 139 40% 2 24.10.2026 -
Charalabos Charalabous Aris Aktiv 128 / 111 40% 2 24.10.2026 -
Matías Galarza Talleres Aktiv 125 / 131 40% 1 24.10.2026 -
Amin Boudri Los Angeles Football Club Aktiv 123 / 137 40% 1 19.10.2026 -
Ibrahim Aliyu Houston Dynamo Aktiv 117 / 112 40% 4 18.10.2026 -
Emil Breivik Molde Aktiv 130 / 124 40% 1 18.10.2026 -
Mandla Mahlangu Ajax Cape Town Aktiv 123 / 103 40% 1 13.10.2026 -
Sam Nombe Milton Keynes Dons Aktiv 111 / 103 40% 1 13.10.2026 -
Nazar Voloshyn Dynamo Kyiv Aktiv 135 / 132 40% 1 11.10.2026 -
Ralph Orquin Seattle Sounders Aktiv 113 / 128 40% 3 10.10.2026 -
Luciano Gondou CSKA Moscow Aktiv 124 / 123 40% 1 10.10.2026 -
Ali Majrashi Al-Ahli Aktiv 140 / 132 40% 1 08.10.2026 -
Seedy Jatta Sturm Graz Aktiv 125 / 125 40% 1 06.10.2026 -
Capita Sporting Kansas City Aktiv 110 / 103 40% 1 03.10.2026 -
Alexander Aravena Portland Timbers Aktiv 124 / 134 40% 2 02.10.2026 -
Lucas Sanabria LA Galaxy Aktiv 130 / 123 40% 1 02.10.2026 -
Ramiro Ruiz Rodríguez Atlético Tucumán Aktiv 111 / 127 40% 1 02.10.2026 -
Leonardo Campana New England Revolution Aktiv 122 / 133 40% 1 02.10.2026 -
Telasco Segovia Inter Miami CF Aktiv 144 / 126 40% 3 29.09.2026 -
Quinn Sullivan Philadelphia Union Aktiv 132 / 126 40% 2 28.09.2026 -
Jimer Fory Portland Timbers Aktiv 107 / 118 40% 1 27.09.2026 -
Lawrence Ennali Houston Dynamo Aktiv 125 / 112 40% 1 27.09.2026 -
Agustín Anello Philadelphia Union Aktiv 133 / 115 40% 1 26.09.2026 -
Hamzat Ojediran Colorado Rapids Aktiv 133 / 117 40% 1 25.09.2026 -
Gabriel Pirani San Diego Football Club Aktiv 139 / 137 40% 1 24.09.2026 -
Cătălin Cîrjan Dinamo Bucharest Aktiv 128 / 118 40% 1 22.09.2026 -
André Luiz Sporting Kansas City Aktiv 126 / 125 40% 2 18.09.2026 -
Kelvin Yeboah Minnesota United FC Aktiv 134 / 116 40% 1 17.09.2026 -
Timothy Zechariah Rivers United Aktiv 83 / 102 40% 1 16.09.2026 -
Diego Luna Real Salt Lake Aktiv 124 / 115 40% 1 12.09.2026 -
Mauricio González Minnesota United FC Aktiv 98 / 123 40% 1 12.09.2026 -
Mateusz Bogusz Houston Dynamo Aktiv 137 / 128 40% 1 11.09.2026 -
Mauricio Amaro Atlanta United FC Aktiv 119 / 128 40% 1 09.09.2026 -
Louis Munteanu DC United Aktiv 135 / 127 40% 1 09.09.2026 -
Indiana Vassilev Philadelphia Union Aktiv 121 / 115 40% 1 09.09.2026 -
David Ayala Inter Miami CF Aktiv 121 / 118 40% 1 07.09.2026 -
Matvey Kislyak CSKA Moscow Aktiv 134 / 141 40% 1 02.09.2026 -
Ignacio Suárez Hapoel Kfar Saba Aktiv 106 / 99 40% 1 25.08.2026 -
Jökull Andrésson FH Aktiv 92 / 96 40% 1 18.08.2026 -
Vladimir Nazarov Pakhtakor Aktiv 94 / 115 40% 1 18.08.2026 -
Matías González Volos NPS Aktiv 118 / 120 62% 1 10.08.2026 Befürworten
Richarlison Tottenham Aktiv 141 / 144 40% 1 02.08.2026 -